createdAt,value
2022-10-31T00:00:49.344Z,43.67
2022-10-31T00:01:49.283Z,43.99
2022-10-31T00:02:49.251Z,42.22
2022-10-31T00:03:49.214Z,44.31
2022-10-31T00:04:49.201Z,46.89
2022-10-31T00:05:49.212Z,43.02
2022-10-31T00:06:49.195Z,44.15
2022-10-31T00:07:49.172Z,46.08
2022-10-31T00:08:49.161Z,43.99
2022-10-31T00:09:49.145Z,45.44
2022-10-31T00:10:49.115Z,41.89
2022-10-31T00:11:49.115Z,44.47
2022-10-31T00:12:49.086Z,43.18
2022-10-31T00:13:49.108Z,45.92
2022-10-31T00:14:49.060Z,44.47
2022-10-31T00:15:49.062Z,47.05
2022-10-31T00:16:49.042Z,46.57
2022-10-31T00:17:49.016Z,46.08
2022-10-31T00:18:49.024Z,69.61
2022-10-31T00:19:49.002Z,43.99
2022-10-31T00:20:48.988Z,39.32
2022-10-31T00:21:48.990Z,45.28
2022-10-31T00:22:48.950Z,48.34
2022-10-31T00:23:48.936Z,54.95
2022-10-31T00:24:48.908Z,42.70
2022-10-31T00:25:48.912Z,42.86
2022-10-31T00:26:48.889Z,40.93
2022-10-31T00:27:48.925Z,42.22
2022-10-31T00:28:48.868Z,41.25
2022-10-31T00:29:48.846Z,48.50
2022-10-31T00:30:48.852Z,44.79
2022-10-31T00:31:48.841Z,42.22
2022-10-31T00:32:48.820Z,40.93
2022-10-31T00:33:48.798Z,46.57
2022-10-31T00:34:48.791Z,43.18
2022-10-31T00:35:48.769Z,42.86
2022-10-31T00:36:48.751Z,42.54
2022-10-31T00:37:48.793Z,39.96
2022-10-31T00:38:48.731Z,41.57
2022-10-31T00:39:48.712Z,43.02
2022-10-31T00:40:48.712Z,41.57
2022-10-31T00:41:48.681Z,43.67
2022-10-31T00:42:48.673Z,44.15
2022-10-31T00:43:48.677Z,42.70
2022-10-31T00:44:48.665Z,42.06
2022-10-31T00:45:48.637Z,42.22
2022-10-31T00:46:48.661Z,39.96
2022-10-31T00:47:48.611Z,42.38
2022-10-31T00:48:48.586Z,39.96
2022-10-31T00:49:48.584Z,40.93
2022-10-31T00:50:48.593Z,42.54
2022-10-31T00:51:48.566Z,43.83
2022-10-31T00:52:48.529Z,41.41
2022-10-31T00:53:48.544Z,41.73
2022-10-31T00:54:48.509Z,43.67
2022-10-31T00:55:48.528Z,42.70
2022-10-31T00:56:48.486Z,40.77
2022-10-31T00:57:48.479Z,43.51
2022-10-31T00:58:48.448Z,44.15
2022-10-31T00:59:48.430Z,40.93
2022-10-31T01:00:51.053Z,41.73
2022-10-31T01:01:48.532Z,44.47
2022-10-31T01:02:48.468Z,40.93
2022-10-31T01:03:48.402Z,44.47
2022-10-31T01:04:48.370Z,45.92
2022-10-31T01:05:48.351Z,42.22
2022-10-31T01:06:48.352Z,42.22
2022-10-31T01:07:48.343Z,42.22
2022-10-31T01:08:48.303Z,41.25
2022-10-31T01:10:09.295Z,41.41
2022-10-31T01:10:48.275Z,40.93
2022-10-31T01:11:48.263Z,40.44
2022-10-31T01:12:48.325Z,43.67
2022-10-31T01:13:48.239Z,42.38
2022-10-31T01:14:48.224Z,43.67
2022-10-31T01:15:48.204Z,44.79
2022-10-31T01:16:48.184Z,41.89
2022-10-31T01:17:48.172Z,40.93
2022-10-31T01:18:48.191Z,41.89
2022-10-31T01:19:48.163Z,40.61
2022-10-31T01:20:48.139Z,41.57
2022-10-31T01:21:48.123Z,42.38
2022-10-31T01:22:48.120Z,40.93
2022-10-31T01:23:48.129Z,40.44
2022-10-31T01:24:48.070Z,40.12
2022-10-31T01:25:48.068Z,41.73
2022-10-31T01:26:48.045Z,41.41
2022-10-31T01:27:48.058Z,44.15
2022-10-31T01:28:48.025Z,39.64
2022-10-31T01:29:48.043Z,40.12
2022-10-31T01:30:47.989Z,52.05
2022-10-31T01:31:47.979Z,47.86
2022-10-31T01:32:48.004Z,40.77
2022-10-31T01:33:47.969Z,41.09
2022-10-31T01:34:47.945Z,45.12
2022-10-31T01:35:47.919Z,43.83
2022-10-31T01:36:47.924Z,39.96
2022-10-31T01:37:47.887Z,40.93
2022-10-31T01:38:47.900Z,41.73
2022-10-31T01:39:47.861Z,54.62
2022-10-31T01:40:47.850Z,62.20
2022-10-31T01:41:47.844Z,66.87
2022-10-31T01:42:47.826Z,46.08
2022-10-31T01:43:47.836Z,42.86
2022-10-31T01:44:47.785Z,43.34
2022-10-31T01:45:47.777Z,41.57
2022-10-31T01:46:47.752Z,43.02
2022-10-31T01:47:47.761Z,42.70
2022-10-31T01:48:47.743Z,43.51
2022-10-31T01:49:47.755Z,48.50
2022-10-31T01:50:47.702Z,57.04
2022-10-31T01:51:47.693Z,46.57
2022-10-31T01:52:47.700Z,73.96
2022-10-31T01:53:47.654Z,42.70
2022-10-31T01:54:47.635Z,43.02
2022-10-31T01:55:47.653Z,41.57
2022-10-31T01:56:47.629Z,41.73
2022-10-31T01:57:47.602Z,42.86
2022-10-31T01:58:47.589Z,43.83
2022-10-31T01:59:47.590Z,45.76
2022-10-31T02:00:47.611Z,41.57
2022-10-31T02:01:47.698Z,40.93
2022-10-31T02:02:47.627Z,40.44
2022-10-31T02:03:47.535Z,41.89
2022-10-31T02:04:47.493Z,41.57
2022-10-31T02:05:47.484Z,41.57
2022-10-31T02:06:47.495Z,40.93
2022-10-31T02:07:47.497Z,43.18
2022-10-31T02:08:47.435Z,43.02
2022-10-31T02:09:47.440Z,46.57
2022-10-31T02:10:47.409Z,41.73
2022-10-31T02:11:47.398Z,45.28
2022-10-31T02:12:47.396Z,44.79
2022-10-31T02:13:47.366Z,43.34
2022-10-31T02:14:47.350Z,42.54
2022-10-31T02:15:47.416Z,43.34
2022-10-31T02:16:47.337Z,46.73
2022-10-31T02:17:47.325Z,76.86
2022-10-31T02:18:47.309Z,45.92
2022-10-31T02:19:47.298Z,42.70
2022-10-31T02:20:47.273Z,43.34
2022-10-31T02:21:47.263Z,41.89
2022-10-31T02:22:47.242Z,43.18
2022-10-31T02:23:50.310Z,45.28
2022-10-31T02:24:47.241Z,44.15
2022-10-31T02:25:47.216Z,44.96
2022-10-31T02:26:47.194Z,44.15
2022-10-31T02:27:47.172Z,46.89
2022-10-31T02:28:47.172Z,46.57
2022-10-31T02:29:47.140Z,46.08
2022-10-31T02:30:47.124Z,46.25
2022-10-31T02:31:47.145Z,43.99
2022-10-31T02:32:47.092Z,42.38
2022-10-31T02:33:47.087Z,44.47
2022-10-31T02:34:47.080Z,45.60
2022-10-31T02:35:47.056Z,44.31
2022-10-31T02:36:47.063Z,48.18
2022-10-31T02:37:47.025Z,45.92
2022-10-31T02:38:47.026Z,47.70
2022-10-31T02:39:47.023Z,43.83
2022-10-31T02:40:46.986Z,46.89
2022-10-31T02:41:46.977Z,43.34
2022-10-31T02:42:46.958Z,45.12
2022-10-31T02:43:46.940Z,45.12
2022-10-31T02:44:46.924Z,43.18
2022-10-31T02:45:46.977Z,74.28
2022-10-31T02:46:46.900Z,43.83
2022-10-31T02:47:46.916Z,46.73
2022-10-31T02:48:46.868Z,43.99
2022-10-31T02:49:46.882Z,46.08
2022-10-31T02:50:46.842Z,46.08
2022-10-31T02:51:46.850Z,45.12
2022-10-31T02:52:46.821Z,45.28
2022-10-31T02:53:46.804Z,47.21
2022-10-31T02:54:46.789Z,45.28
2022-10-31T02:55:46.781Z,49.31
2022-10-31T02:56:46.781Z,46.89
2022-10-31T02:57:46.759Z,47.37
2022-10-31T02:58:46.737Z,48.34
2022-10-31T02:59:46.720Z,48.50
2022-10-31T03:00:49.726Z,47.86
2022-10-31T03:01:47.860Z,46.89
2022-10-31T03:02:46.674Z,47.37
2022-10-31T03:03:46.669Z,44.96
2022-10-31T03:04:46.649Z,45.76
2022-10-31T03:05:46.623Z,47.05
2022-10-31T03:06:46.617Z,46.57
2022-10-31T03:07:46.628Z,44.79
2022-10-31T03:08:46.594Z,47.21
2022-10-31T03:09:46.581Z,48.34
2022-10-31T03:10:46.565Z,66.06
2022-10-31T03:11:46.558Z,46.41
2022-10-31T03:12:48.697Z,46.89
2022-10-31T03:13:46.550Z,46.73
2022-10-31T03:14:46.539Z,47.37
2022-10-31T03:15:46.492Z,47.21
2022-10-31T03:16:46.479Z,48.66
2022-10-31T03:17:46.499Z,59.78
2022-10-31T03:18:46.464Z,46.57
2022-10-31T03:19:46.454Z,46.25
2022-10-31T03:20:46.453Z,46.73
2022-10-31T03:21:46.409Z,44.63
2022-10-31T03:22:46.403Z,46.73
2022-10-31T03:23:46.396Z,44.96
2022-10-31T03:24:46.371Z,47.53
2022-10-31T03:25:46.355Z,45.76
2022-10-31T03:26:46.372Z,48.18
2022-10-31T03:27:46.328Z,48.02
2022-10-31T03:28:46.351Z,47.53
2022-10-31T03:29:46.310Z,47.70
2022-10-31T03:30:46.314Z,48.98
2022-10-31T03:31:46.282Z,50.11
2022-10-31T03:32:46.292Z,49.47
2022-10-31T03:33:46.264Z,47.21
2022-10-31T03:34:46.236Z,47.86
2022-10-31T03:35:46.225Z,48.02
2022-10-31T03:36:46.244Z,51.88
2022-10-31T03:37:46.202Z,50.27
2022-10-31T03:38:46.165Z,46.89
2022-10-31T03:39:46.167Z,49.95
2022-10-31T03:40:46.157Z,48.82
2022-10-31T03:41:46.152Z,49.15
2022-10-31T03:42:46.140Z,50.27
2022-10-31T03:43:46.135Z,48.34
2022-10-31T03:44:46.100Z,51.24
2022-10-31T03:45:46.095Z,48.82
2022-10-31T03:46:46.088Z,50.11
2022-10-31T03:47:46.044Z,49.79
2022-10-31T03:48:46.024Z,48.98
2022-10-31T03:49:46.036Z,51.72
2022-10-31T03:50:46.018Z,50.27
2022-10-31T03:51:46.002Z,51.40
2022-10-31T03:52:45.998Z,73.48
2022-10-31T03:53:45.997Z,49.95
2022-10-31T03:54:45.964Z,50.27
2022-10-31T03:55:45.947Z,54.14
2022-10-31T03:56:45.924Z,50.76
2022-10-31T04:23:56.300Z,63.49
2022-10-31T04:24:56.236Z,54.95
2022-10-31T04:25:56.134Z,54.79
2022-10-31T04:26:56.141Z,53.98
2022-10-31T04:27:56.141Z,54.46
2022-10-31T04:28:56.123Z,51.88
2022-10-31T04:29:56.046Z,55.27
2022-10-31T04:30:56.086Z,53.66
2022-10-31T04:31:56.124Z,53.82
2022-10-31T04:32:56.103Z,55.11
2022-10-31T04:33:56.047Z,55.11
2022-10-31T04:34:56.027Z,54.46
2022-10-31T04:35:56.025Z,52.85
2022-10-31T04:36:55.973Z,55.75
2022-10-31T04:37:55.992Z,68.16
2022-10-31T04:38:55.996Z,54.62
2022-10-31T04:39:55.956Z,54.46
2022-10-31T04:40:55.936Z,55.43
2022-10-31T04:41:55.936Z,56.40
2022-10-31T04:42:55.945Z,53.33
2022-10-31T04:43:55.911Z,53.50
2022-10-31T04:44:55.855Z,53.66
2022-10-31T04:45:55.864Z,54.46
2022-10-31T04:46:55.838Z,56.40
2022-10-31T04:47:55.867Z,57.36
2022-10-31T04:48:55.793Z,58.17
2022-10-31T04:49:55.829Z,53.82
2022-10-31T04:50:55.827Z,55.59
2022-10-31T04:51:55.872Z,57.69
2022-10-31T04:52:55.764Z,55.75
2022-10-31T04:53:55.727Z,54.30
2022-10-31T04:54:55.716Z,54.95
2022-10-31T04:55:55.757Z,56.07
2022-10-31T04:56:55.686Z,55.11
2022-10-31T04:57:55.744Z,53.82
2022-10-31T04:58:55.694Z,55.59
2022-10-31T04:59:55.613Z,56.72
2022-10-31T05:00:55.774Z,71.38
2022-10-31T05:01:55.747Z,52.85
2022-10-31T05:02:55.601Z,53.66
2022-10-31T05:03:55.571Z,53.50
2022-10-31T05:04:55.575Z,53.66
2022-10-31T05:05:55.529Z,54.14
2022-10-31T05:06:55.571Z,54.95
2022-10-31T05:07:55.552Z,54.30
2022-10-31T05:08:55.511Z,54.14
2022-10-31T05:09:55.468Z,57.69
2022-10-31T05:10:57.373Z,60.75
2022-10-31T05:11:55.485Z,54.95
2022-10-31T05:12:55.505Z,52.85
2022-10-31T05:13:55.432Z,53.82
2022-10-31T05:14:55.424Z,53.82
2022-10-31T05:15:55.437Z,53.01
2022-10-31T05:16:55.384Z,54.30
2022-10-31T05:17:55.428Z,54.62
2022-10-31T05:18:55.365Z,55.43
2022-10-31T05:19:55.341Z,55.27
2022-10-31T05:20:55.364Z,54.79
2022-10-31T05:21:55.376Z,53.98
2022-10-31T05:22:55.398Z,53.66
2022-10-31T05:23:55.409Z,54.30
2022-10-31T05:24:55.357Z,53.82
2022-10-31T05:25:55.426Z,55.27
2022-10-31T05:26:55.388Z,56.24
2022-10-31T05:27:55.376Z,55.11
2022-10-31T05:28:55.298Z,54.95
2022-10-31T05:29:55.238Z,53.66
2022-10-31T05:30:55.273Z,53.82
2022-10-31T05:31:55.310Z,55.75
2022-10-31T05:32:55.165Z,55.27
2022-10-31T05:33:55.276Z,55.91
2022-10-31T05:34:55.291Z,56.40
2022-10-31T05:35:55.165Z,56.56
2022-10-31T05:36:55.135Z,58.97
2022-10-31T05:37:55.196Z,57.36
2022-10-31T05:38:55.190Z,57.04
2022-10-31T05:39:55.165Z,57.52
2022-10-31T05:40:55.152Z,56.88
2022-10-31T05:41:55.112Z,56.40
2022-10-31T05:42:55.055Z,57.20
2022-10-31T05:43:55.042Z,57.20
2022-10-31T05:44:55.046Z,57.20
2022-10-31T05:45:55.075Z,58.17
2022-10-31T05:46:55.075Z,69.61
2022-10-31T05:47:54.999Z,56.24
2022-10-31T05:48:57.528Z,56.40
2022-10-31T05:49:55.982Z,56.88
2022-10-31T05:50:54.985Z,54.79
2022-10-31T05:51:54.938Z,55.75
2022-10-31T05:52:54.889Z,57.04
2022-10-31T05:53:54.934Z,56.88
2022-10-31T05:54:55.157Z,56.72
2022-10-31T05:55:54.965Z,55.59
2022-10-31T05:56:54.897Z,55.11
2022-10-31T05:57:54.822Z,53.33
2022-10-31T05:58:54.923Z,54.14
2022-10-31T05:59:55.324Z,55.59
2022-10-31T06:00:54.803Z,57.85
2022-10-31T06:01:54.945Z,73.64
2022-10-31T06:02:54.813Z,55.43
2022-10-31T06:03:54.719Z,56.24
2022-10-31T06:04:54.874Z,54.30
2022-10-31T06:05:55.448Z,54.62
2022-10-31T06:06:54.752Z,56.40
2022-10-31T06:07:54.697Z,55.27
2022-10-31T06:08:54.687Z,54.79
2022-10-31T06:09:54.708Z,56.07
2022-10-31T06:10:54.661Z,56.72
2022-10-31T06:11:54.610Z,57.36
2022-10-31T06:12:54.712Z,58.49
2022-10-31T06:13:54.596Z,57.04
2022-10-31T06:14:54.590Z,58.01
2022-10-31T06:15:54.606Z,56.24
2022-10-31T06:16:54.601Z,57.04
2022-10-31T06:17:54.548Z,56.40
2022-10-31T06:18:54.558Z,54.79
2022-10-31T06:19:54.562Z,55.75
2022-10-31T06:20:54.517Z,58.01
2022-10-31T06:21:54.500Z,55.91
2022-10-31T06:22:54.458Z,55.75
2022-10-31T06:23:54.561Z,57.36
2022-10-31T06:24:54.544Z,58.97
2022-10-31T06:25:54.459Z,57.52
2022-10-31T06:26:54.462Z,57.36
2022-10-31T06:27:54.463Z,60.26
2022-10-31T06:28:54.441Z,55.43
2022-10-31T06:29:54.389Z,58.65
2022-10-31T06:30:54.416Z,61.39
2022-10-31T06:31:54.461Z,54.62
2022-10-31T06:32:54.324Z,55.27
2022-10-31T06:33:54.369Z,56.72
2022-10-31T06:34:54.281Z,58.49
2022-10-31T06:35:54.355Z,56.56
2022-10-31T06:36:54.287Z,55.91
2022-10-31T06:37:54.362Z,56.88
2022-10-31T06:38:54.536Z,57.36
2022-10-31T06:39:54.341Z,57.36
2022-10-31T06:40:54.245Z,57.85
2022-10-31T06:41:54.333Z,58.01
2022-10-31T06:42:54.189Z,54.46
2022-10-31T06:43:54.194Z,57.36
2022-10-31T06:44:54.283Z,57.52
2022-10-31T06:45:54.202Z,58.97
2022-10-31T06:46:54.182Z,57.52
2022-10-31T06:48:15.366Z,72.83
2022-10-31T06:48:55.113Z,56.07
2022-10-31T06:49:54.092Z,56.56
2022-10-31T06:50:59.428Z,55.91
2022-10-31T06:51:55.137Z,56.72
2022-10-31T06:52:54.060Z,57.20
2022-10-31T06:53:54.150Z,55.75
2022-10-31T06:54:54.025Z,55.91
2022-10-31T06:55:54.066Z,56.24
2022-10-31T06:56:54.007Z,55.43
2022-10-31T06:57:55.564Z,55.11
2022-10-31T06:58:54.074Z,56.88
2022-10-31T06:59:54.102Z,56.72
2022-10-31T07:00:53.993Z,56.07
2022-10-31T07:01:54.115Z,57.04
2022-10-31T07:02:53.894Z,57.04
2022-10-31T07:03:53.891Z,62.04
2022-10-31T07:04:53.884Z,57.52
2022-10-31T07:05:53.835Z,72.99
2022-10-31T07:06:53.914Z,57.20
2022-10-31T07:07:54.006Z,58.49
2022-10-31T07:08:53.858Z,56.24
2022-10-31T07:09:53.858Z,56.40
2022-10-31T07:10:53.813Z,55.43
2022-10-31T07:11:53.778Z,55.75
2022-10-31T07:12:53.837Z,57.36
2022-10-31T07:13:53.852Z,56.72
2022-10-31T07:14:53.769Z,56.88
2022-10-31T07:15:53.734Z,57.04
2022-10-31T07:16:53.744Z,56.24
2022-10-31T07:17:53.698Z,58.97
2022-10-31T07:18:53.685Z,55.91
2022-10-31T07:19:53.679Z,55.91
2022-10-31T07:20:53.690Z,55.91
2022-10-31T07:21:53.653Z,58.81
2022-10-31T07:22:53.644Z,66.39
2022-10-31T07:23:53.643Z,65.26
2022-10-31T07:24:53.611Z,57.36
2022-10-31T07:25:53.585Z,55.59
2022-10-31T07:26:53.675Z,60.59
2022-10-31T07:27:53.559Z,56.72
2022-10-31T07:28:54.490Z,58.01
2022-10-31T07:29:53.524Z,55.11
2022-10-31T07:30:53.511Z,56.56
2022-10-31T07:31:53.491Z,60.10
2022-10-31T07:32:53.498Z,62.04
2022-10-31T07:33:53.454Z,56.88
2022-10-31T07:34:53.448Z,54.95
2022-10-31T07:35:53.525Z,57.85
2022-10-31T07:36:53.487Z,59.46
2022-10-31T07:37:53.407Z,58.33
2022-10-31T07:38:53.391Z,56.56
2022-10-31T07:39:53.422Z,57.52
2022-10-31T07:40:53.452Z,57.04
2022-10-31T07:41:53.378Z,57.36
2022-10-31T07:42:53.408Z,56.07
2022-10-31T07:44:56.742Z,70.25
2022-10-31T07:45:53.359Z,62.04
2022-10-31T07:46:53.291Z,57.20
2022-10-31T07:47:53.269Z,56.72
2022-10-31T07:48:53.337Z,55.75
2022-10-31T07:49:53.213Z,56.40
2022-10-31T07:50:53.223Z,57.52
2022-10-31T07:51:53.191Z,62.52
2022-10-31T07:52:53.161Z,66.55
2022-10-31T07:53:53.171Z,60.75
2022-10-31T07:54:53.199Z,56.88
2022-10-31T07:55:53.162Z,56.07
2022-10-31T07:56:53.083Z,59.62
2022-10-31T07:57:53.085Z,58.33
2022-10-31T07:58:53.052Z,61.87
2022-10-31T07:59:53.048Z,55.75
2022-10-31T08:00:53.108Z,62.84
2022-10-31T08:01:53.026Z,56.40
2022-10-31T08:02:53.053Z,65.26
2022-10-31T08:03:53.035Z,56.24
2022-10-31T08:04:54.903Z,57.04
2022-10-31T08:05:52.954Z,55.91
2022-10-31T08:06:52.977Z,57.36
2022-10-31T08:07:52.904Z,56.88
2022-10-31T08:08:52.960Z,58.33
2022-10-31T08:09:52.908Z,57.52
2022-10-31T08:10:52.964Z,55.43
2022-10-31T08:11:52.871Z,55.27
2022-10-31T08:12:52.862Z,55.75
2022-10-31T08:13:52.872Z,59.46
2022-10-31T08:14:52.897Z,57.36
2022-10-31T08:15:52.848Z,57.69
2022-10-31T08:16:52.834Z,55.27
2022-10-31T08:17:52.829Z,58.01
2022-10-31T08:18:52.823Z,55.59
2022-10-31T08:19:52.772Z,57.04
2022-10-31T08:20:52.791Z,56.72
2022-10-31T08:21:52.729Z,56.40
2022-10-31T08:22:52.727Z,54.30
2022-10-31T08:23:52.738Z,55.59
2022-10-31T08:24:52.673Z,59.14
2022-10-31T08:25:52.716Z,55.91
2022-10-31T08:26:52.666Z,57.36
2022-10-31T08:27:52.657Z,56.56
2022-10-31T08:28:52.628Z,56.72
2022-10-31T08:29:52.622Z,56.40
2022-10-31T08:30:52.642Z,56.56
2022-10-31T08:31:52.571Z,59.78
2022-10-31T08:32:52.620Z,64.45
2022-10-31T08:33:52.608Z,59.30
2022-10-31T08:34:52.601Z,57.04
2022-10-31T08:35:52.582Z,55.91
2022-10-31T08:36:52.536Z,57.69
2022-10-31T08:37:52.518Z,55.59
2022-10-31T08:38:53.800Z,57.20
2022-10-31T08:39:52.461Z,57.20
2022-10-31T08:40:52.452Z,55.59
2022-10-31T08:41:52.488Z,56.56
2022-10-31T08:42:52.426Z,55.43
2022-10-31T08:43:52.441Z,55.11
2022-10-31T08:44:52.428Z,57.04
2022-10-31T08:45:52.413Z,54.79
2022-10-31T08:46:52.450Z,55.43
2022-10-31T08:47:52.423Z,55.75
2022-10-31T08:48:52.418Z,55.59
2022-10-31T08:49:52.355Z,55.27
2022-10-31T08:50:52.363Z,54.30
2022-10-31T08:51:52.380Z,53.98
2022-10-31T08:53:04.776Z,53.33
2022-10-31T08:53:53.347Z,54.95
2022-10-31T08:54:52.280Z,54.14
2022-10-31T08:55:52.274Z,54.95
2022-10-31T08:56:52.339Z,52.21
2022-10-31T08:57:52.362Z,53.17
2022-10-31T08:58:52.245Z,52.69
2022-10-31T08:59:52.249Z,52.69
2022-10-31T09:00:52.340Z,55.75
2022-10-31T09:01:52.310Z,53.33
2022-10-31T09:02:52.176Z,53.82
2022-10-31T09:03:52.161Z,53.82
2022-10-31T09:04:52.147Z,51.24
2022-10-31T09:05:52.217Z,51.72
2022-10-31T09:07:21.683Z,50.60
2022-10-31T09:07:53.133Z,51.08
2022-10-31T09:08:52.104Z,52.37
2022-10-31T09:09:52.113Z,70.58
2022-10-31T09:10:52.068Z,55.27
2022-10-31T09:11:52.061Z,51.56
2022-10-31T09:12:52.068Z,53.82
2022-10-31T09:13:52.052Z,53.01
2022-10-31T09:14:52.015Z,54.30
2022-10-31T09:15:52.029Z,51.40
2022-10-31T09:16:51.981Z,57.36
2022-10-31T09:17:52.128Z,55.59
2022-10-31T09:18:51.952Z,49.31
2022-10-31T09:19:51.933Z,50.92
2022-10-31T09:20:51.962Z,54.46
2022-10-31T09:21:51.991Z,51.08
2022-10-31T09:22:51.903Z,51.40
2022-10-31T09:23:51.892Z,50.76
2022-10-31T09:24:51.895Z,52.21
2022-10-31T09:25:51.887Z,54.62
2022-10-31T09:26:51.847Z,51.72
2022-10-31T09:27:51.897Z,52.21
2022-10-31T09:28:51.821Z,51.72
2022-10-31T09:29:51.825Z,52.37
2022-10-31T09:30:51.843Z,50.60
2022-10-31T09:31:51.794Z,51.08
2022-10-31T09:32:51.792Z,49.95
2022-10-31T09:33:51.759Z,51.40
2022-10-31T09:34:51.772Z,50.60
2022-10-31T09:35:51.749Z,52.21
2022-10-31T09:36:51.748Z,51.72
2022-10-31T09:37:51.787Z,51.08
2022-10-31T09:38:51.714Z,52.21
2022-10-31T09:39:51.725Z,52.05
2022-10-31T09:40:51.732Z,50.60
2022-10-31T09:41:56.156Z,50.27
2022-10-31T09:42:52.652Z,51.40
2022-10-31T09:43:51.667Z,51.40
2022-10-31T09:44:51.621Z,54.79
2022-10-31T09:45:51.573Z,52.85
2022-10-31T09:46:51.608Z,51.24
2022-10-31T09:47:51.625Z,52.69
2022-10-31T09:48:51.578Z,54.95
2022-10-31T09:49:51.623Z,52.85
2022-10-31T09:50:51.532Z,53.01
2022-10-31T09:51:53.096Z,52.53
2022-10-31T09:52:51.492Z,51.08
2022-10-31T09:53:51.498Z,52.37
2022-10-31T09:54:51.494Z,53.50
2022-10-31T09:55:51.487Z,51.24
2022-10-31T09:56:51.460Z,52.53
2022-10-31T09:58:46.988Z,53.33
2022-10-31T09:59:46.732Z,52.85
2022-10-31T10:00:46.831Z,51.72
2022-10-31T10:01:46.858Z,52.21
2022-10-31T10:02:46.670Z,50.11
2022-10-31T10:03:46.650Z,53.33
2022-10-31T10:04:46.642Z,51.72
2022-10-31T10:05:46.650Z,51.72
2022-10-31T10:06:46.653Z,51.56
2022-10-31T10:07:46.646Z,58.01
2022-10-31T10:08:46.600Z,52.21
2022-10-31T10:09:46.565Z,51.08
2022-10-31T10:10:46.553Z,52.69
2022-10-31T10:11:46.547Z,50.60
2022-10-31T10:12:46.543Z,50.60
2022-10-31T10:13:46.499Z,51.08
2022-10-31T10:14:46.509Z,50.60
2022-10-31T10:15:46.499Z,52.37
2022-10-31T10:16:46.485Z,54.46
2022-10-31T10:17:46.539Z,50.43
2022-10-31T10:18:46.465Z,49.79
2022-10-31T10:19:46.428Z,51.08
2022-10-31T10:20:46.462Z,50.76
2022-10-31T10:21:46.408Z,50.11
2022-10-31T10:22:46.465Z,50.60
2022-10-31T10:23:46.535Z,54.30
2022-10-31T10:24:46.366Z,49.63
2022-10-31T10:25:46.392Z,52.69
2022-10-31T10:26:46.409Z,48.82
2022-10-31T10:27:46.322Z,49.63
2022-10-31T10:28:46.354Z,51.56
2022-10-31T10:29:46.289Z,53.33
2022-10-31T10:30:46.280Z,48.82
2022-10-31T10:31:46.269Z,51.72
2022-10-31T10:32:50.851Z,51.88
2022-10-31T10:33:47.261Z,51.24
2022-10-31T10:34:46.249Z,54.14
2022-10-31T10:35:46.211Z,55.11
2022-10-31T10:36:46.194Z,51.88
2022-10-31T10:37:46.178Z,63.49
2022-10-31T10:38:46.262Z,65.26
2022-10-31T10:39:46.167Z,51.72
2022-10-31T10:40:46.131Z,52.05
2022-10-31T10:41:46.150Z,51.24
2022-10-31T10:42:46.136Z,51.24
2022-10-31T10:44:46.101Z,54.30
2022-10-31T10:45:46.075Z,53.01
2022-10-31T10:46:46.084Z,52.37
2022-10-31T10:47:46.091Z,52.85
2022-10-31T10:48:46.325Z,49.63
2022-10-31T10:49:46.034Z,59.62
2022-10-31T10:50:46.004Z,61.55
2022-10-31T10:52:50.511Z,51.40
2022-10-31T10:53:46.202Z,51.08
2022-10-31T10:54:45.987Z,50.43
2022-10-31T10:55:45.988Z,51.08
2022-10-31T10:56:45.938Z,49.79
2022-10-31T10:57:45.916Z,51.72
2022-10-31T10:58:45.893Z,51.08
2022-10-31T10:59:45.886Z,51.72
2022-10-31T11:00:45.920Z,53.17
2022-10-31T11:01:45.996Z,51.72
2022-10-31T11:02:48.819Z,50.92
2022-10-31T11:03:45.830Z,52.37
2022-10-31T11:04:45.825Z,52.37
2022-10-31T11:05:45.803Z,52.37
2022-10-31T11:06:45.810Z,54.30
2022-10-31T11:07:45.819Z,69.93
2022-10-31T11:08:45.780Z,51.56
2022-10-31T11:09:45.776Z,56.07
2022-10-31T11:10:45.742Z,51.08
2022-10-31T11:11:45.757Z,51.24
2022-10-31T11:12:45.701Z,51.56
2022-10-31T11:13:45.701Z,53.17
2022-10-31T11:14:45.694Z,51.24
2022-10-31T11:15:45.675Z,51.72
2022-10-31T11:16:45.660Z,50.76
2022-10-31T11:17:45.687Z,52.69
2022-10-31T11:18:45.688Z,52.21
2022-10-31T11:19:45.604Z,52.05
2022-10-31T11:20:45.618Z,54.79
2022-10-31T11:21:49.823Z,54.95
2022-10-31T11:22:46.582Z,53.17
2022-10-31T11:23:45.553Z,53.01
2022-10-31T11:24:45.577Z,54.62
2022-10-31T11:25:45.536Z,52.69
2022-10-31T11:26:45.524Z,57.04
2022-10-31T11:27:45.548Z,57.36
2022-10-31T11:28:45.496Z,79.44
2022-10-31T11:29:45.475Z,51.08
2022-10-31T11:30:45.475Z,53.50
2022-10-31T11:31:45.467Z,52.21
2022-10-31T11:32:52.992Z,51.24
2022-10-31T11:33:54.296Z,53.50
2022-10-31T11:34:45.432Z,53.17
2022-10-31T11:35:45.433Z,52.21
2022-10-31T11:36:45.384Z,53.66
2022-10-31T11:37:45.444Z,54.79
2022-10-31T11:38:45.411Z,52.53
2022-10-31T11:39:45.361Z,52.69
2022-10-31T11:40:45.342Z,52.53
2022-10-31T11:41:45.380Z,51.88
2022-10-31T11:42:45.311Z,53.01
2022-10-31T11:43:45.320Z,51.08
2022-10-31T11:44:45.278Z,51.72
2022-10-31T11:45:45.274Z,52.05
2022-10-31T11:46:45.387Z,52.37
2022-10-31T11:47:45.303Z,52.85
2022-10-31T11:48:45.267Z,51.40
2022-10-31T11:49:45.213Z,51.56
2022-10-31T11:50:45.249Z,53.66
2022-10-31T11:51:45.171Z,52.05
2022-10-31T11:52:45.218Z,51.88
2022-10-31T11:53:45.152Z,52.53
2022-10-31T11:54:45.121Z,51.72
2022-10-31T11:55:45.132Z,52.85
2022-10-31T11:56:45.156Z,51.24
2022-10-31T11:57:45.153Z,52.69
2022-10-31T11:58:45.080Z,50.76
2022-10-31T11:59:45.070Z,48.98
2022-10-31T12:00:45.064Z,50.60
2022-10-31T12:01:45.358Z,53.98
2022-10-31T12:02:45.127Z,51.08
2022-10-31T12:03:45.013Z,49.47
2022-10-31T12:04:45.013Z,55.43
2022-10-31T12:05:45.004Z,56.56
2022-10-31T12:06:45.026Z,52.53
2022-10-31T12:07:45.009Z,48.98
2022-10-31T12:08:44.966Z,50.43
2022-10-31T12:09:44.932Z,51.40
2022-10-31T12:10:44.929Z,51.56
2022-10-31T12:11:44.914Z,50.27
2022-10-31T12:12:44.920Z,50.60
2022-10-31T12:13:44.895Z,50.60
2022-10-31T12:14:44.888Z,51.72
2022-10-31T12:15:44.857Z,53.82
2022-10-31T12:16:44.848Z,52.53
2022-10-31T12:17:44.932Z,50.92
2022-10-31T12:18:44.810Z,50.76
2022-10-31T12:19:44.832Z,63.97
2022-10-31T12:20:44.796Z,51.40
2022-10-31T12:21:44.782Z,55.75
2022-10-31T12:22:44.756Z,49.15
2022-10-31T12:23:44.737Z,50.43
2022-10-31T12:24:44.740Z,49.63
2022-10-31T12:25:44.747Z,52.69
2022-10-31T12:26:44.711Z,51.24
2022-10-31T12:27:44.709Z,59.94
2022-10-31T12:28:47.112Z,49.95
2022-10-31T12:29:44.663Z,49.15
2022-10-31T12:30:44.658Z,49.47
2022-10-31T12:31:44.643Z,54.14
2022-10-31T12:32:44.635Z,49.95
2022-10-31T12:33:44.633Z,49.79
2022-10-31T12:34:48.817Z,49.95
2022-10-31T12:35:44.629Z,47.37
2022-10-31T12:36:44.562Z,47.86
2022-10-31T12:37:44.590Z,50.11
2022-10-31T12:38:44.534Z,51.24
2022-10-31T12:39:44.558Z,48.98
2022-10-31T12:40:44.516Z,51.56
2022-10-31T12:41:44.508Z,50.76
2022-10-31T12:42:44.473Z,52.85
2022-10-31T12:43:44.522Z,66.71
2022-10-31T12:44:44.495Z,51.56
2022-10-31T12:45:44.634Z,49.95
2022-10-31T12:46:44.437Z,50.27
2022-10-31T12:47:44.421Z,50.27
2022-10-31T12:48:44.475Z,53.33
2022-10-31T12:49:44.430Z,50.92
2022-10-31T12:50:44.833Z,54.30
2022-10-31T12:51:44.559Z,48.82
2022-10-31T12:52:44.358Z,51.24
2022-10-31T12:53:44.410Z,50.43
2022-10-31T12:54:47.083Z,51.72
2022-10-31T12:55:44.297Z,54.30
2022-10-31T12:56:44.299Z,53.17
2022-10-31T12:57:44.312Z,50.92
2022-10-31T12:58:44.297Z,75.25
2022-10-31T12:59:44.309Z,52.21
2022-10-31T13:00:44.304Z,51.24
2022-10-31T13:01:44.327Z,55.59
2022-10-31T13:02:44.219Z,50.60
2022-10-31T13:03:44.234Z,50.60
2022-10-31T13:04:44.259Z,51.88
2022-10-31T13:05:44.174Z,56.56
2022-10-31T13:06:45.008Z,55.11
2022-10-31T13:07:44.166Z,60.59
2022-10-31T13:08:44.187Z,51.08
2022-10-31T13:09:44.152Z,50.92
2022-10-31T13:10:44.245Z,50.11
2022-10-31T13:11:44.165Z,50.92
2022-10-31T13:12:44.079Z,74.93
2022-10-31T13:13:44.073Z,52.21
2022-10-31T13:14:44.183Z,51.40
2022-10-31T13:15:44.160Z,55.43
2022-10-31T13:16:44.098Z,51.08
2022-10-31T13:17:44.019Z,51.24
2022-10-31T13:18:44.103Z,51.08
2022-10-31T13:19:44.014Z,52.53
2022-10-31T13:20:43.953Z,53.01
2022-10-31T13:21:43.988Z,58.01
2022-10-31T13:22:43.937Z,54.46